Time;durP1;ratioP1;P1;durP2;ratioP2;P2;SDS_P1;SDS_P2;PMS_P1;PMS_P2;Temp;Humidity;BMP_temperature;BMP_pressure;BME280_temperature;BME280_humidity;BME280_pressure;Samples;Min_cycle;Max_cycle;Signal;HPM_P1;HPM_P2
2022/06/09 00:01:14;;;;;;;19.63;2.95;;;;;;;15.43;85.11;100883.06;6237290;23;19984;-60
2022/06/09 00:04:03;;;;;;;19.38;4.80;;;;;;;15.43;84.85;100880.41;6239425;23;20051;-61
2022/06/09 00:06:32;;;;;;;;;;;;;;;15.41;84.85;100885.81;6212333;23;20003;-63
2022/06/09 00:09:00;;;;;;;18.27;3.42;;;;;;;15.31;85.23;100891.69;6211512;23;19908;-60
2022/06/09 00:11:26;;;;;;;17.70;4.13;;;;;;;15.34;84.97;100889.72;6211897;23;20016;-60
2022/06/09 00:13:51;;;;;;;13.77;3.30;;;;;;;15.29;84.93;100891.75;6237809;23;20336;-62
2022/06/09 00:16:17;;;;;;;16.33;4.00;;;;;;;15.25;85.41;100900.84;6238454;23;19992;-60
2022/06/09 00:18:42;;;;;;;19.55;3.78;;;;;;;15.23;85.38;100908.88;6238237;23;20310;-63
2022/06/09 00:21:08;;;;;;;18.83;3.72;;;;;;;15.17;85.62;100903.88;6236972;23;20004;-61
2022/06/09 00:23:34;;;;;;;20.85;3.70;;;;;;;15.24;85.56;100901.78;6238592;23;20087;-61
2022/06/09 00:25:59;;;;;;;18.63;3.67;;;;;;;15.27;85.32;100904.28;6238232;23;20004;-60
2022/06/09 00:28:25;;;;;;;17.00;3.67;;;;;;;15.25;84.93;100906.13;6237486;23;20306;-61
2022/06/09 00:30:51;;;;;;;14.95;3.85;;;;;;;15.26;84.88;100913.19;6238596;23;20230;-61
2022/06/09 00:33:16;;;;;;;17.20;3.72;;;;;;;15.28;84.95;100911.28;6237418;23;20054;-61
2022/06/09 00:35:41;;;;;;;14.45;3.72;;;;;;;15.29;84.88;100913.00;6238741;23;20000;-61
2022/06/09 00:38:07;;;;;;;17.90;3.83;;;;;;;15.28;84.63;100913.94;6236659;23;20049;-61
2022/06/09 00:40:32;;;;;;;20.17;3.53;;;;;;;15.19;85.08;100919.72;6237937;23;20099;-60
2022/06/09 00:42:59;;;;;;;16.33;3.28;;;;;;;15.24;84.79;100918.56;6236794;23;20011;-60
2022/06/09 00:45:32;;;;;;;22.70;3.90;;;;;;;15.24;84.88;100921.22;6236870;23;20388;-60
2022/06/09 00:48:08;;;;;;;14.27;4.00;;;;;;;15.22;85.14;100919.56;6237955;23;20004;-61
2022/06/09 00:50:36;;;;;;;14.18;3.78;;;;;;;15.22;84.79;100920.44;6237652;23;20027;-61
2022/06/09 00:53:05;;;;;;;15.38;3.47;;;;;;;15.23;84.95;100921.31;6210295;23;20004;-61
2022/06/09 00:55:31;;;;;;;;;;;;;;;15.26;84.77;100923.81;6187458;23;20004;-61
2022/06/09 00:58:06;;;;;;;16.98;3.40;;;;;;;15.24;84.85;100923.00;6210439;23;19899;-61
2022/06/09 01:00:42;;;;;;;19.52;4.25;;;;;;;15.17;84.91;100933.06;6211569;23;20388;-61
2022/06/09 01:03:07;;;;;;;20.25;3.95;;;;;;;15.18;85.27;100941.91;6211824;23;20015;-60
2022/06/09 01:05:33;;;;;;;18.25;3.80;;;;;;;15.11;84.91;100931.59;6237054;23;20075;-60
2022/06/09 01:08:01;;;;;;;15.50;3.35;;;;;;;15.07;85.24;100940.66;6211376;23;20003;-59
2022/06/09 01:10:29;;;;;;;21.17;3.67;;;;;;;15.06;85.25;100933.66;6235961;23;20431;-60
2022/06/09 01:12:56;;;;;;;22.98;3.72;;;;;;;15.05;85.50;100931.91;6238812;23;20011;-61
2022/06/09 01:15:23;;;;;;;10.85;3.50;;;;;;;15.03;85.30;100934.66;6237987;23;20755;-61
2022/06/09 01:18:10;;;;;;;11.98;2.90;;;;;;;14.97;85.41;100935.00;6210639;23;20035;-61
2022/06/09 01:20:47;;;;;;;11.75;3.60;;;;;;;14.98;85.42;100939.34;6238399;23;20082;-60
2022/06/09 01:23:15;;;;;;;17.25;4.40;;;;;;;14.99;85.43;100949.00;6236689;23;20091;-61
2022/06/09 01:26:18;;;;;;;11.43;3.35;;;;;;;14.86;85.94;100948.78;6237474;23;20083;-61
2022/06/09 01:28:43;;;;;;;12.80;3.05;;;;;;;14.87;85.66;100950.50;6237820;23;20459;-62
2022/06/09 01:31:36;;;;;;;16.20;3.00;;;;;;;14.87;85.77;100957.63;6237486;23;20079;-61
2022/06/09 01:34:05;;;;;;;14.30;2.88;;;;;;;14.82;85.87;100962.28;6210934;23;20328;-61
2022/06/09 01:36:36;;;;;;;14.00;3.40;;;;;;;14.84;85.69;100961.25;6211728;23;20002;-60
2022/06/09 01:39:03;;;;;;;21.13;5.18;;;;;;;14.82;85.88;100952.53;6209820;23;20417;-61
2022/06/09 01:41:29;;;;;;;18.25;3.90;;;;;;;14.83;85.73;100964.84;6240529;23;20071;-60
2022/06/09 01:43:55;;;;;;;12.32;3.63;;;;;;;14.82;85.45;100959.63;6238976;23;20437;-61
2022/06/09 01:46:33;;;;;;;18.08;3.63;;;;;;;14.81;85.57;100964.06;6213074;23;20065;-60
2022/06/09 01:49:10;;;;;;;12.48;3.20;;;;;;;14.80;85.43;100970.31;6240569;23;20027;-60
2022/06/09 01:51:37;;;;;;;9.57;3.38;;;;;;;14.79;85.31;100971.25;6210714;23;20004;-60
2022/06/09 01:54:22;;;;;;;15.20;3.42;;;;;;;14.77;85.53;100975.72;6239759;23;20237;-60
2022/06/09 01:57:03;;;;;;;13.98;3.72;;;;;;;14.82;85.33;100976.41;6211537;23;20000;-61
2022/06/09 01:59:40;;;;;;;9.13;2.80;;;;;;;14.81;85.33;100985.28;6239992;23;20324;-60
2022/06/09 02:02:20;;;;;;;15.15;2.85;;;;;;;14.94;84.78;100976.72;6237592;23;20019;-60
2022/06/09 02:04:52;;;;;;;10.70;2.85;;;;;;;14.97;84.33;100985.41;6239209;23;20001;-60
2022/06/09 02:07:19;;;;;;;10.35;2.80;;;;;;;15.00;84.37;100973.75;6212196;23;20047;-61
2022/06/09 02:09:44;;;;;;;19.25;2.50;;;;;;;15.03;84.31;100981.56;6209714;23;20174;-61
2022/06/09 02:12:13;;;;;;;8.43;2.17;;;;;;;15.09;84.02;100975.97;6238158;23;20016;-60
2022/06/09 02:14:39;;;;;;;;;;;;;;;15.17;83.73;100980.84;6240867;23;20437;-59
2022/06/09 02:17:06;;;;;;;8.60;1.77;;;;;;;15.17;83.83;100983.50;6212327;23;19906;-61
2022/06/09 02:19:32;;;;;;;8.82;2.00;;;;;;;15.15;83.82;100991.53;6240237;23;20063;-62
2022/06/09 02:21:57;;;;;;;15.13;2.85;;;;;;;15.21;83.73;100990.41;6238119;23;20008;-60
2022/06/09 02:24:23;;;;;;;12.60;2.30;;;;;;;15.25;83.74;100997.25;6240016;23;20059;-60
2022/06/09 02:26:48;;;;;;;14.30;2.90;;;;;;;15.29;83.77;101001.47;6239010;23;20328;-60
2022/06/09 02:29:14;;;;;;;7.70;2.05;;;;;;;15.35;83.56;100992.31;6238833;23;20314;-60
2022/06/09 02:31:40;;;;;;;7.47;2.05;;;;;;;15.38;83.42;100997.47;6238761;23;20011;-61
2022/06/09 02:34:05;;;;;;;11.88;2.33;;;;;;;15.40;82.79;101000.94;6236674;23;20000;-61
2022/06/09 02:36:31;;;;;;;13.65;2.20;;;;;;;15.51;82.71;101002.16;6239083;23;20306;-62
2022/06/09 02:38:57;;;;;;;13.73;2.42;;;;;;;15.54;82.40;101007.31;6237380;23;20448;-60
2022/06/09 02:41:22;;;;;;;7.15;1.98;;;;;;;15.53;82.91;101010.88;6239318;23;20000;-59
2022/06/09 02:43:48;;;;;;;11.55;2.28;;;;;;;15.56;82.63;101007.22;6237888;23;20060;-61
2022/06/09 02:46:13;;;;;;;12.68;2.53;;;;;;;15.58;82.69;101013.31;6238573;23;20008;-61
2022/06/09 02:48:40;;;;;;;17.73;2.30;;;;;;;15.55;82.43;101019.66;6237889;23;20080;-59
2022/06/09 02:51:14;;;;;;;12.05;2.10;;;;;;;15.60;82.62;101022.94;6238171;23;20005;-60
2022/06/09 02:53:40;;;;;;;7.18;1.77;;;;;;;15.61;82.47;101029.94;6238731;23;20451;-59
2022/06/09 02:56:05;;;;;;;12.65;2.60;;;;;;;15.64;82.53;101027.13;6238550;23;20023;-60
2022/06/09 02:58:30;;;;;;;12.18;2.15;;;;;;;15.68;82.49;101014.53;6238591;23;20484;-60
2022/06/09 03:00:56;;;;;;;12.20;2.17;;;;;;;15.67;82.42;101028.75;6238771;23;20007;-61
2022/06/09 03:03:21;;;;;;;7.68;2.20;;;;;;;15.69;82.48;101034.00;6237108;23;20008;-60
2022/06/09 03:05:46;;;;;;;11.68;1.88;;;;;;;15.68;82.31;101033.13;6238503;23;20502;-61
2022/06/09 03:08:12;;;;;;;6.25;1.52;;;;;;;15.64;82.17;101037.75;6237150;23;20433;-60
2022/06/09 03:10:37;;;;;;;12.95;2.30;;;;;;;15.62;82.18;101036.97;6239403;23;20031;-61
2022/06/09 03:13:03;;;;;;;4.88;2.00;;;;;;;15.63;82.04;101040.50;6238063;23;20015;-61
2022/06/09 03:15:29;;;;;;;9.15;1.70;;;;;;;15.68;81.41;101049.06;6239124;23;20008;-60
2022/06/09 03:17:54;;;;;;;12.68;2.17;;;;;;;15.72;81.02;101048.00;6239390;23;20588;-60
2022/06/09 03:20:23;;;;;;;10.63;2.10;;;;;;;15.71;81.21;101050.72;6237616;23;20436;-60
2022/06/09 03:22:48;;;;;;;;;;;;;;;15.72;80.99;101050.66;6238553;23;20004;-60
2022/06/09 03:25:14;;;;;;;7.47;1.48;;;;;;;15.71;80.73;101056.03;6238460;23;19933;-60
2022/06/09 03:27:40;;;;;;;5.38;1.40;;;;;;;15.70;80.90;101055.16;6237879;23;20405;-61
2022/06/09 03:30:06;;;;;;;5.82;1.90;;;;;;;15.74;80.68;101053.22;6239207;23;20000;-61
2022/06/09 03:32:32;;;;;;;10.43;1.48;;;;;;;15.74;80.30;101062.03;6238415;23;20004;-62
2022/06/09 03:34:57;;;;;;;13.10;1.70;;;;;;;15.80;80.12;101066.16;6237998;23;20313;-61
2022/06/09 03:37:23;;;;;;;5.85;1.63;;;;;;;15.78;80.04;101062.75;6237858;23;20076;-61
2022/06/09 03:39:48;;;;;;;8.10;1.83;;;;;;;15.82;80.20;101077.59;6239053;23;20047;-60
2022/06/09 03:42:14;;;;;;;7.78;1.70;;;;;;;15.88;79.91;101079.03;6238754;23;20332;-59
2022/06/09 03:44:39;;;;;;;7.53;1.80;;;;;;;15.99;79.30;101086.50;6238855;23;20400;-61
2022/06/09 03:47:05;;;;;;;9.45;2.35;;;;;;;16.01;79.38;101089.91;6239091;23;20004;-60
2022/06/09 03:49:31;;;;;;;11.57;1.80;;;;;;;16.10;78.94;101094.75;6239476;23;20001;-60
2022/06/09 03:51:56;;;;;;;8.85;1.65;;;;;;;16.11;79.04;101101.81;6238388;23;20004;-60
2022/06/09 03:54:22;;;;;;;5.30;1.73;;;;;;;16.19;79.02;101108.50;6238955;23;20007;-60
2022/06/09 03:56:48;;;;;;;5.57;1.50;;;;;;;16.25;78.84;101105.50;6238509;23;19996;-62
2022/06/09 03:59:13;;;;;;;4.63;1.77;;;;;;;16.36;78.23;101105.78;6238925;23;20316;-60
2022/06/09 04:01:39;;;;;;;9.15;1.45;;;;;;;16.34;78.09;101112.97;6238862;23;20007;-60
2022/06/09 04:04:04;;;;;;;6.47;1.40;;;;;;;16.47;77.80;101113.19;6237666;23;20039;-62
2022/06/09 04:06:30;;;;;;;3.88;1.05;;;;;;;16.47;77.74;101118.50;6238914;23;20004;-61
2022/06/09 04:08:55;;;;;;;6.30;1.73;;;;;;;16.50;77.22;101128.13;6211761;23;20367;-60
2022/06/09 04:11:22;;;;;;;2.40;1.05;;;;;;;16.54;76.80;101130.53;6238478;23;20019;-61
2022/06/09 04:13:48;;;;;;;7.43;1.23;;;;;;;16.45;76.77;101138.13;6238173;23;20467;-61
2022/06/09 04:16:25;;;;;;;4.22;1.27;;;;;;;16.52;76.69;101137.72;6238979;23;20440;-61
2022/06/09 04:18:52;;;;;;;6.00;1.65;;;;;;;16.57;76.44;101140.13;6239174;23;20008;-63
2022/06/09 04:21:18;;;;;;;4.57;1.60;;;;;;;16.61;76.48;101135.47;6237553;23;20073;-60
2022/06/09 04:23:44;;;;;;;4.63;1.20;;;;;;;16.60;76.02;101144.41;6238888;23;20020;-62
2022/06/09 04:26:14;;;;;;;4.80;1.30;;;;;;;16.70;75.75;101147.44;6238579;23;20004;-60
2022/06/09 04:28:40;;;;;;;4.72;1.23;;;;;;;16.78;75.31;101153.19;6212039;23;20004;-60
2022/06/09 04:31:05;;;;;;;7.65;1.30;;;;;;;16.78;75.77;101158.50;6238245;23;20378;-59
2022/06/09 04:33:30;;;;;;;3.88;1.30;;;;;;;16.89;75.29;101157.94;6239478;23;20007;-60
2022/06/09 04:35:56;;;;;;;8.45;1.20;;;;;;;16.97;75.43;101160.13;6237272;23;20005;-60
2022/06/09 04:38:21;;;;;;;6.38;1.10;;;;;;;17.10;74.54;101166.53;6238224;23;20035;-60
2022/06/09 04:40:46;;;;;;;7.50;1.50;;;;;;;16.99;74.83;101166.25;6238653;23;20054;-60
2022/06/09 04:43:12;;;;;;;4.70;1.70;;;;;;;17.02;75.15;101164.28;6237902;23;20004;-60
2022/06/09 04:45:38;;;;;;;9.50;1.48;;;;;;;17.19;74.35;101175.81;6238655;23;20464;-59
2022/06/09 04:48:05;;;;;;;9.90;1.38;;;;;;;17.29;73.41;101173.47;6238438;23;20091;-61
2022/06/09 04:50:31;;;;;;;6.53;1.48;;;;;;;17.36;73.03;101165.97;6237897;23;20003;-61
2022/06/09 04:52:57;;;;;;;5.28;1.67;;;;;;;17.39;73.34;101174.66;6238963;23;20011;-61
2022/06/09 04:55:23;;;;;;;11.13;1.67;;;;;;;17.45;72.60;101173.44;6238375;23;20337;-61
2022/06/09 04:57:48;;;;;;;6.53;1.30;;;;;;;17.39;72.80;101179.13;6238075;23;20024;-61
2022/06/09 05:00:15;;;;;;;6.88;1.48;;;;;;;17.38;72.46;101191.59;6237240;23;20094;-60
2022/06/09 05:02:40;;;;;;;4.72;1.33;;;;;;;17.46;72.52;101196.47;6238083;23;20038;-60
2022/06/09 05:05:07;;;;;;;8.02;1.67;;;;;;;17.48;71.78;101204.38;6237095;23;20004;-60
2022/06/09 05:07:32;;;;;;;8.75;1.50;;;;;;;17.51;72.04;101206.88;6237294;23;20014;-61
2022/06/09 05:09:58;;;;;;;3.08;1.10;;;;;;;17.33;72.13;101212.31;6237192;23;20004;-60
2022/06/09 05:12:23;;;;;;;5.35;1.40;;;;;;;17.29;72.61;101218.75;6238249;23;20464;-60
2022/06/09 05:14:49;;;;;;;5.55;1.30;;;;;;;17.30;72.95;101220.47;6238362;23;20004;-60
2022/06/09 05:17:14;;;;;;;6.53;1.33;;;;;;;17.41;72.85;101231.38;6237868;23;20007;-60
2022/06/09 05:19:40;;;;;;;5.63;1.60;;;;;;;17.37;72.56;101232.47;6237365;23;20087;-61
2022/06/09 05:22:05;;;;;;;6.95;1.67;;;;;;;17.53;72.14;101232.50;6236909;23;20258;-61
2022/06/09 05:24:31;;;;;;;5.55;1.90;;;;;;;17.39;73.00;101240.38;6239525;23;20404;-61
2022/06/09 05:26:56;;;;;;;5.45;1.25;;;;;;;17.40;73.32;101240.31;6239398;23;20126;-61
2022/06/09 05:29:22;;;;;;;7.75;1.70;;;;;;;17.39;73.56;101246.59;6239303;23;20027;-61
2022/06/09 05:31:47;;;;;;;4.80;1.52;;;;;;;17.35;73.75;101253.03;6238763;23;20332;-61
2022/06/09 05:34:13;;;;;;;9.43;1.73;;;;;;;17.20;74.22;101257.41;6237467;23;20027;-61
2022/06/09 05:36:38;;;;;;;6.03;1.60;;;;;;;17.29;74.46;101264.03;6238754;23;20440;-60
2022/06/09 05:47:16;;;;;;;4.43;1.77;;;;;;;17.04;75.97;101290.16;6238125;23;20038;-61
2022/06/09 05:49:43;;;;;;;9.55;1.90;;;;;;;17.07;76.82;101297.16;6238591;23;20015;-61
2022/06/09 05:52:09;;;;;;;4.85;1.80;;;;;;;16.97;77.16;101296.75;6237111;23;20010;-62
2022/06/09 05:54:34;;;;;;;4.10;1.52;;;;;;;16.79;77.67;101309.25;6237028;23;20038;-60
2022/06/09 05:56:59;;;;;;;4.93;1.80;;;;;;;16.65;78.05;101313.50;6238297;23;20010;-60
2022/06/09 05:59:25;;;;;;;5.05;1.83;;;;;;;16.61;78.62;101316.38;6239976;23;20004;-60
2022/06/09 06:01:52;;;;;;;5.70;2.03;;;;;;;16.41;79.69;101316.47;6238317;23;20337;-62
2022/06/09 06:04:17;;;;;;;5.47;1.83;;;;;;;16.36;79.73;101318.53;6239641;23;20000;-61
2022/06/09 06:06:43;;;;;;;6.65;1.98;;;;;;;16.26;80.01;101312.78;6237863;23;20023;-61
2022/06/09 06:09:17;;;;;;;5.88;1.73;;;;;;;16.19;80.09;101326.50;6239625;23;20004;-60
2022/06/09 06:11:44;;;;;;;5.45;1.90;;;;;;;16.11;80.32;101329.53;6211175;23;20038;-60
2022/06/09 06:14:10;;;;;;;5.10;1.80;;;;;;;16.12;80.50;101332.13;6237231;23;20330;-61
2022/06/09 06:16:36;;;;;;;2.40;1.40;;;;;;;16.11;80.49;101341.03;6237513;23;20011;-62
2022/06/09 06:19:03;;;;;;;4.20;1.88;;;;;;;16.16;80.81;101352.28;6237012;23;20058;-60
2022/06/09 06:21:28;;;;;;;9.25;2.30;;;;;;;16.25;80.73;101350.09;6211887;23;20421;-60
2022/06/09 06:23:55;;;;;;;5.95;1.90;;;;;;;16.31;80.85;101346.28;6238388;23;20011;-61
2022/06/09 06:26:20;;;;;;;5.28;1.60;;;;;;;16.41;80.76;101356.38;6239130;23;20024;-61
2022/06/09 06:28:46;;;;;;;6.20;1.88;;;;;;;16.60;80.23;101358.09;6210377;23;20481;-60
2022/06/09 06:31:11;;;;;;;6.72;2.30;;;;;;;16.68;79.69;101350.56;6239080;23;20428;-60
2022/06/09 06:33:37;;;;;;;7.28;1.80;;;;;;;16.88;79.50;101355.78;6237428;23;20006;-61
2022/06/09 06:36:02;;;;;;;8.38;2.17;;;;;;;16.98;78.55;101357.03;6236303;23;20492;-62
2022/06/09 06:38:28;;;;;;;8.85;2.13;;;;;;;16.99;78.02;101361.44;6239087;23;20424;-58
2022/06/09 06:40:54;;;;;;;5.28;1.75;;;;;;;17.18;78.06;101371.13;6236509;23;20471;-60
2022/06/09 06:43:20;;;;;;;6.00;1.83;;;;;;;17.28;78.07;101366.19;6238143;23;20008;-58
2022/06/09 06:45:45;;;;;;;6.68;2.03;;;;;;;17.31;77.99;101363.34;6237388;23;20001;-59
2022/06/09 06:48:11;;;;;;;9.75;2.60;;;;;;;17.49;77.49;101373.94;6237297;23;20071;-57
2022/06/09 06:50:36;;;;;;;6.80;1.80;;;;;;;17.63;76.87;101371.38;6238263;23;20000;-58
2022/06/09 06:53:02;;;;;;;3.28;1.90;;;;;;;17.73;76.40;101371.69;6237132;23;20004;-60
2022/06/09 06:55:29;;;;;;;4.90;1.65;;;;;;;17.86;75.69;101381.69;6236946;23;19996;-59
2022/06/09 06:57:54;;;;;;;5.50;2.00;;;;;;;17.88;75.57;101385.13;6235602;23;20054;-59
2022/06/09 07:00:22;;;;;;;6.65;2.00;;;;;;;17.76;75.83;101390.19;6235464;23;20008;-58
2022/06/09 07:02:48;;;;;;;3.33;1.75;;;;;;;17.74;75.29;101386.78;6236112;23;20040;-59
2022/06/09 07:05:14;;;;;;;9.35;1.88;;;;;;;17.66;75.12;101395.19;6237017;23;20028;-59
2022/06/09 07:07:40;;;;;;;7.10;1.73;;;;;;;17.60;75.43;101402.63;6238285;23;20000;-59
2022/06/09 07:10:07;;;;;;;6.70;2.17;;;;;;;17.65;75.37;101401.47;6210998;23;20091;-59
2022/06/09 07:12:32;;;;;;;7.50;1.83;;;;;;;17.71;74.92;101402.94;6238015;23;20107;-60
2022/06/09 07:14:58;;;;;;;8.57;2.00;;;;;;;17.85;74.40;101402.13;6237830;23;20028;-58
2022/06/09 07:17:24;;;;;;;10.32;2.53;;;;;;;18.01;73.81;101403.97;6238794;23;20000;-57
2022/06/09 07:19:49;;;;;;;6.65;1.85;;;;;;;18.05;72.75;101408.16;6236223;23;20366;-63
2022/06/09 07:22:14;;;;;;;7.60;2.22;;;;;;;18.06;72.97;101407.22;6238173;23;20016;-55
2022/06/09 07:24:41;;;;;;;8.80;2.47;;;;;;;18.02;73.39;101416.34;6237737;23;20004;-59
2022/06/09 07:27:06;;;;;;;5.03;2.00;;;;;;;17.92;74.10;101421.34;6237784;23;20004;-59
2022/06/09 07:29:32;;;;;;;11.90;2.22;;;;;;;17.99;73.71;101416.50;6238946;23;20080;-62
2022/06/09 07:31:58;;;;;;;6.43;2.05;;;;;;;18.17;72.52;101420.84;6237404;23;20004;-59
2022/06/09 07:34:23;;;;;;;9.43;2.13;;;;;;;18.34;73.01;101427.00;6237625;23;20122;-60
2022/06/09 07:36:48;;;;;;;7.88;2.08;;;;;;;18.49;72.43;101427.06;6237241;23;20000;-57
2022/06/09 07:39:14;;;;;;;5.25;2.05;;;;;;;18.62;70.65;101429.88;6237641;23;19996;-58
2022/06/09 07:41:39;;;;;;;9.52;1.83;;;;;;;18.70;70.91;101438.31;6211084;23;20004;-58
2022/06/09 07:44:07;;;;;;;8.65;2.25;;;;;;;18.67;70.88;101447.31;6237973;23;20428;-58
2022/06/09 07:46:33;;;;;;;6.72;2.20;;;;;;;18.61;71.62;101445.03;6236732;23;20046;-60
2022/06/09 07:48:59;;;;;;;6.07;1.90;;;;;;;18.63;69.59;101452.97;6238737;23;20421;-59
2022/06/09 07:51:26;;;;;;;7.05;1.45;;;;;;;18.71;66.56;101453.34;6235638;23;20000;-59
2022/06/09 07:53:52;;;;;;;8.55;1.73;;;;;;;19.15;66.22;101453.50;6236668;23;20083;-59
2022/06/09 07:56:18;;;;;;;9.52;1.67;;;;;;;19.50;63.17;101453.13;6238705;23;20050;-61
2022/06/09 07:58:43;;;;;;;6.72;1.27;;;;;;;19.90;63.27;101459.59;6236995;23;20383;-63
2022/06/09 08:01:10;;;;;;;5.93;1.35;;;;;;;19.99;61.83;101458.16;6237265;23;20011;-59
2022/06/09 08:03:36;;;;;;;9.88;1.83;;;;;;;20.07;59.79;101458.53;6237984;23;20008;-60
2022/06/09 08:06:01;;;;;;;6.60;1.15;;;;;;;20.23;59.94;101458.41;6236099;23;20275;-62
2022/06/09 08:08:27;;;;;;;11.18;1.58;;;;;;;20.20;59.51;101462.13;6211878;23;20327;-59
2022/06/09 08:10:52;;;;;;;8.02;1.30;;;;;;;20.06;58.99;101471.06;6237181;23;20437;-62
2022/06/09 08:13:17;;;;;;;8.48;1.73;;;;;;;19.99;59.81;101472.38;6236022;23;20000;-60
2022/06/09 08:15:44;;;;;;;7.35;1.50;;;;;;;19.93;60.57;101484.31;6236463;23;20064;-61
2022/06/09 08:18:10;;;;;;;8.13;1.75;;;;;;;19.96;60.74;101493.97;6237225;23;20000;-60
2022/06/09 08:20:38;;;;;;;8.73;1.92;;;;;;;19.76;60.21;101495.22;6210301;23;20080;-60
2022/06/09 08:23:08;;;;;;;5.72;1.50;;;;;;;19.93;60.05;101494.16;6236936;23;20012;-60
2022/06/09 08:25:34;;;;;;;8.00;1.40;;;;;;;20.16;59.07;101498.06;6211359;23;20159;-61
2022/06/09 08:28:00;;;;;;;6.80;1.67;;;;;;;20.32;58.36;101503.28;6237391;23;20008;-59
2022/06/09 08:30:25;;;;;;;7.00;1.52;;;;;;;20.45;59.02;101502.50;6235641;23;19996;-60
2022/06/09 08:32:51;;;;;;;7.47;1.42;;;;;;;20.66;56.86;101510.06;6237737;23;20116;-63
2022/06/09 08:35:18;;;;;;;8.40;1.48;;;;;;;20.41;56.60;101519.72;6236524;23;20003;-61
2022/06/09 08:37:48;;;;;;;6.63;1.58;;;;;;;20.27;57.40;101510.75;6238366;23;20417;-62
2022/06/09 08:40:17;;;;;;;6.38;1.52;;;;;;;20.38;57.14;101520.75;6237201;23;19992;-60
2022/06/09 08:43:02;;;;;;;8.05;1.88;;;;;;;20.51;56.69;101510.13;6238312;23;20008;-60
2022/06/09 08:45:32;;;;;;;8.88;2.00;;;;;;;20.56;56.54;101520.53;6211420;23;20381;-59
2022/06/09 08:47:59;;;;;;;8.77;1.75;;;;;;;20.38;57.64;101523.44;6209320;23;20004;-61
2022/06/09 08:50:37;;;;;;;8.30;2.17;;;;;;;20.10;58.34;101527.88;6212630;23;20007;-62
2022/06/09 08:53:09;;;;;;;9.67;2.27;;;;;;;19.79;59.35;101529.78;6239785;23;20007;-60
2022/06/09 08:55:45;;;;;;;7.07;1.50;;;;;;;19.65;61.36;101530.63;6241136;23;20004;-61
2022/06/09 08:58:34;;;;;;;7.18;1.48;;;;;;;19.52;60.39;101536.75;6239526;23;20083;-61
2022/06/09 09:01:04;;;;;;;8.07;1.42;;;;;;;19.44;60.28;101541.69;6241793;23;20004;-60
2022/06/09 09:03:42;;;;;;;9.13;1.88;;;;;;;19.55;60.29;101536.56;6241992;23;20602;-60
2022/06/09 09:06:47;;;;;;;7.38;1.83;;;;;;;19.33;59.97;101537.00;6240048;23;20394;-60
2022/06/09 09:09:29;;;;;;;6.20;1.30;;;;;;;19.45;61.11;101540.75;6240047;23;20018;-59
2022/06/09 09:12:22;;;;;;;6.40;1.50;;;;;;;19.49;60.84;101544.09;6241195;23;20027;-60
2022/06/09 09:15:13;;;;;;;10.27;1.90;;;;;;;19.55;60.04;101547.25;6215075;23;20027;-60
2022/06/09 09:17:50;;;;;;;11.32;1.65;;;;;;;19.61;61.50;101551.38;6213308;23;20028;-61
2022/06/09 09:20:20;;;;;;;6.70;1.42;;;;;;;19.73;60.67;101548.88;6213367;23;20085;-59
2022/06/09 09:23:02;;;;;;;6.07;1.83;;;;;;;19.72;59.02;101547.16;6214751;23;20420;-63
2022/06/09 09:25:46;;;;;;;6.40;1.60;;;;;;;19.66;59.54;101553.75;6215215;23;20004;-60
2022/06/09 09:28:23;;;;;;;7.05;1.58;;;;;;;19.55;58.82;101560.63;6240531;23;20082;-61
2022/06/09 09:31:16;;;;;;;7.60;1.88;;;;;;;19.74;59.13;101555.97;6240757;23;20281;-60
2022/06/09 09:33:42;;;;;;;10.52;1.60;;;;;;;19.75;59.09;101574.56;6241200;23;20047;-61
2022/06/09 09:36:24;;;;;;;9.15;1.90;;;;;;;19.93;58.74;101575.25;6240128;23;20308;-60
2022/06/09 09:39:03;;;;;;;8.45;1.92;;;;;;;20.02;59.00;101570.31;6214345;23;20000;-62
2022/06/09 09:41:34;;;;;;;8.35;1.80;;;;;;;19.96;57.86;101576.88;6214915;23;20008;-60
2022/06/09 09:44:14;;;;;;;6.53;2.17;;;;;;;20.08;58.18;101580.63;6241279;23;20054;-60
2022/06/09 09:46:40;;;;;;;10.02;2.00;;;;;;;20.28;58.73;101586.53;6241013;23;20004;-61
2022/06/09 09:49:15;;;;;;;7.68;1.88;;;;;;;20.48;58.29;101582.59;6239837;23;20065;-60
2022/06/09 09:51:42;;;;;;;7.07;1.75;;;;;;;20.61;58.89;101582.66;6215197;23;20416;-60
2022/06/09 09:54:26;;;;;;;5.03;1.63;;;;;;;20.85;55.49;101598.06;6214447;23;20007;-60
2022/06/09 09:57:03;;;;;;;5.93;1.67;;;;;;;20.75;57.20;101596.94;6239653;23;20126;-61
2022/06/09 09:59:29;;;;;;;6.78;1.83;;;;;;;20.60;55.46;101609.50;6241347;23;20019;-59
2022/06/09 10:10:26;;;;;;;8.20;2.13;;;;;;;21.07;54.19;101615.44;6215245;23;20081;-60
2022/06/09 10:12:54;;;;;;;7.05;1.85;;;;;;;21.07;55.25;101620.81;6238864;23;20035;-61
2022/06/09 10:15:21;;;;;;;8.55;1.30;;;;;;;21.07;55.55;101623.47;6213258;23;20004;-61
2022/06/09 10:18:06;;;;;;;7.45;1.60;;;;;;;21.45;53.17;101622.72;6238455;23;20023;-61
2022/06/09 10:20:37;;;;;;;9.13;2.00;;;;;;;21.32;53.78;101621.81;6238207;23;20062;-60
2022/06/09 10:23:13;;;;;;;7.50;1.65;;;;;;;21.26;55.02;101625.78;6238837;23;20338;-62
2022/06/09 10:26:02;;;;;;;7.95;1.95;;;;;;;21.38;53.56;101629.47;6238323;23;20012;-62
2022/06/09 10:28:54;;;;;;;8.02;1.75;;;;;;;21.30;52.73;101629.09;6212053;23;20007;-60
2022/06/09 10:31:40;;;;;;;5.47;1.90;;;;;;;21.11;54.56;101646.41;6212322;23;20004;-61
2022/06/09 10:34:34;;;;;;;6.70;2.15;;;;;;;21.31;55.01;101638.88;6237733;23;20034;-61
2022/06/09 10:37:21;;;;;;;10.70;2.55;;;;;;;21.33;53.09;101639.63;6239970;23;20340;-61
2022/06/09 10:39:59;;;;;;;7.63;1.92;;;;;;;21.22;53.98;101637.66;6211935;23;20004;-60
2022/06/09 10:42:36;;;;;;;4.97;1.67;;;;;;;21.25;55.32;101648.16;6211733;23;20065;-62
2022/06/09 10:45:11;;;;;;;9.73;1.83;;;;;;;21.30;56.03;101642.50;6211510;23;20062;-59
2022/06/09 10:57:03;;;;;;;9.60;1.90;;;;;;;21.56;50.48;101653.28;6237122;23;20015;-61
2022/06/09 10:59:43;;;;;;;11.35;2.08;;;;;;;21.68;51.53;101671.25;6239572;23;20004;-59
2022/06/09 11:02:28;;;;;;;8.52;2.10;;;;;;;21.80;51.15;101652.59;6210440;23;20010;-59
2022/06/09 11:04:53;;;;;;;8.93;2.08;;;;;;;21.86;51.40;101654.88;6210611;23;20459;-62
2022/06/09 11:07:47;;;;;;;6.43;1.55;;;;;;;21.95;50.15;101667.63;6211515;23;20063;-61
2022/06/09 11:10:37;;;;;;;9.38;2.03;;;;;;;22.29;50.18;101671.59;6238663;23;20054;-61
2022/06/09 11:13:11;;;;;;;10.15;2.13;;;;;;;22.31;50.13;101664.28;6236353;23;20018;-60
2022/06/09 11:15:38;;;;;;;15.43;2.10;;;;;;;22.27;51.10;101673.53;6238621;23;20000;-61
2022/06/09 11:18:32;;;;;;;5.57;1.60;;;;;;;22.12;50.41;101678.16;6209502;23;20062;-61
2022/06/09 11:21:18;;;;;;;9.60;2.20;;;;;;;22.07;51.71;101679.31;6238151;23;20444;-61
2022/06/09 11:23:46;;;;;;;6.70;1.77;;;;;;;21.93;52.94;101674.94;6237190;23;20004;-63
2022/06/09 11:26:50;;;;;;;11.47;2.00;;;;;;;21.76;51.82;101673.41;6237522;23;20000;-61
2022/06/09 11:29:40;;;;;;;7.07;1.95;;;;;;;21.64;52.31;101676.91;6237568;23;20019;-61
2022/06/09 11:32:14;;;;;;;6.43;2.10;;;;;;;21.37;52.24;101680.50;6237231;23;20084;-61
2022/06/09 11:35:21;;;;;;;11.00;2.28;;;;;;;21.54;54.25;101692.75;6185367;23;20099;-61
2022/06/09 11:38:06;;;;;;;9.13;2.03;;;;;;;21.80;50.85;101676.75;6236548;23;20494;-61
2022/06/09 11:40:42;;;;;;;8.05;2.03;;;;;;;22.12;51.55;101678.16;6212587;23;20008;-63
2022/06/09 11:43:15;;;;;;;8.45;2.10;;;;;;;21.93;51.04;101676.75;6209294;23;20512;-61
2022/06/09 11:45:54;;;;;;;11.48;2.22;;;;;;;22.05;51.43;101685.78;6238959;23;20004;-62
2022/06/09 11:48:30;;;;;;;8.73;2.28;;;;;;;21.81;49.75;101689.19;6237287;23;20005;-62
2022/06/09 11:50:56;;;;;;;14.07;2.38;;;;;;;21.57;50.18;101687.19;6237607;23;20007;-61
2022/06/09 11:53:25;;;;;;;12.98;2.42;;;;;;;21.73;51.13;101688.84;6236949;23;20008;-60
2022/06/09 11:56:00;;;;;;;10.95;2.38;;;;;;;22.12;49.88;101688.91;6211393;23;20008;-65
2022/06/09 11:58:34;;;;;;;11.85;2.08;;;;;;;22.20;51.41;101698.13;6236358;23;20000;-60
2022/06/09 12:01:29;;;;;;;10.07;2.35;;;;;;;22.66;50.91;101685.09;6238616;23;20004;-61
2022/06/09 12:04:18;;;;;;;8.13;1.85;;;;;;;22.67;49.34;101692.16;6185084;23;20421;-61